Tampa International Airport

KTPA · Florida, United States

METAR history KTPA · Tampa International Airport

Below you see METARs of the last few days. Select a year to browse through older METARs, from the year 2007 onwards.

April 13, 2024

Time Code Weather Temp. Visibility Ceiling Wind METAR/SPECI
02:53
V
16 °C 10 mi - 360° 360° 0 kt METAR KTPA 130653Z 00000KT 10SM CLR 16/12 A3021 RMK AO2 SLP230 T01560122
01:53
V
17 °C 10 mi - 360° 360° 0 kt METAR KTPA 130553Z 00000KT 10SM CLR 17/12 A3021 RMK AO2 SLP229 T01720122 10222 20172 51002
00:53
V
18 °C 10 mi - 300° 300° 5 kt METAR KTPA 130453Z 30005KT 10SM CLR 18/12 A3021 RMK AO2 SLP229 T01780117 402610156

April 12, 2024

Time Code Weather Temp. Visibility Ceiling Wind METAR/SPECI
23:53
V
18 °C 10 mi - 310° 310° 6 kt METAR KTPA 130353Z 31006KT 10SM CLR 18/11 A3021 RMK AO2 SLP229 T01830111
22:53
V
19 °C 10 mi - 320° 320° 8 kt METAR KTPA 130253Z 32008KT 10SM CLR 19/11 A3020 RMK AO2 SLP227 T01940106 52020
21:53
V
20 °C 10 mi - 300° 300° 6 kt METAR KTPA 130153Z 30006KT 10SM CLR 20/11 A3019 RMK AO2 SLP221 T02000111
20:53
V
21 °C 10 mi - 300° 300° 8 - 16 kt METAR KTPA 130053Z 30008G16KT 10SM CLR 21/11 A3016 RMK AO2 SLP212 T02110111
19:53
V
22 °C 10 mi - 300° 300° 12 - 20 kt METAR KTPA 122353Z 30012G20KT 10SM FEW280 22/09 A3014 RMK AO2 SLP207 T02170094 10261 20217 53006
18:53
V
23 °C 10 mi - 290° 290° 16 - 28 kt METAR KTPA 122253Z 29016G28KT 10SM FEW280 23/09 A3013 RMK AO2 PK WND 28036/2220 SLP203 T02330089
17:53
V
24 °C 10 mi - 300° 300° 13 - 22 kt METAR KTPA 122153Z 30013G22KT 10SM FEW050 24/13 A3013 RMK AO2 PK WND 28026/2142 SLP202 T02390128
16:53
V
25 °C 10 mi - 280° 280° 11 - 23 kt METAR KTPA 122053Z 28011G23KT 10SM FEW050 25/11 A3012 RMK AO2 SLP200 T02500111 56008
15:53
V
24 °C 10 mi - 280° 280° 11 - 19 kt METAR KTPA 121953Z 28011G19KT 240V310 10SM CLR 24/11 A3013 RMK AO2 PK WND 27028/1924 SLP201 T02440106
14:53
V
24 °C 10 mi - 280° 280° 12 - 21 kt METAR KTPA 121853Z 28012G21KT 10SM FEW280 24/11 A3014 RMK AO2 SLP206 T02440111
13:53
V
24 °C 10 mi - 290° 290° 9 - 19 kt METAR KTPA 121753Z 29009G19KT 10SM FEW280 24/11 A3015 RMK AO2 PK WND 28026/1718 SLP209 T02440106 10250 20167 58010
12:53
V
25 °C 10 mi - 320° 320° 13 - 19 kt METAR KTPA 121653Z 32013G19KT 10SM FEW280 25/10 A3016 RMK AO2 SLP214 T02500100
11:53
V
24 °C 10 mi - 320° 320° 10 - 22 kt METAR KTPA 121553Z 32010G22KT 10SM CLR 24/10 A3018 RMK AO2 SLP220 T02440100
10:53
V
23 °C 10 mi - 310° 310° 9 kt METAR KTPA 121453Z 31009KT 10SM FEW250 23/11 A3018 RMK AO2 SLP219 T02330106 51018
09:53
V
21 °C 10 mi - 300° 300° 6 kt METAR KTPA 121353Z 30006KT 10SM FEW250 21/13 A3016 RMK AO2 SLP214 T02110128
08:53
V
19 °C 10 mi - 340° 340° 5 kt METAR KTPA 121253Z 34005KT 10SM FEW250 19/12 A3015 RMK AO2 SLP208 T01940122
07:53
V
17 °C 10 mi - 360° 360° 6 kt METAR KTPA 121153Z 36006KT 10SM FEW250 17/11 A3013 RMK AO2 SLP201 70045 T01670106 10200 20156 53023
06:53
V
16 °C 10 mi - 360° 360° 5 kt METAR KTPA 121053Z 36005KT 10SM FEW250 16/11 A3010 RMK AO2 SLP193 T01610106
05:53
V
17 °C 10 mi - 010° 010° 4 kt METAR KTPA 120953Z 01004KT 10SM CLR 17/10 A3008 RMK AO2 SLP185 T01720100
04:53
V
18 °C 10 mi - 350° 350° 15 - 21 kt METAR KTPA 120853Z 35015G21KT 10SM CLR 18/11 A3006 RMK AO2 SLP178 T01780106 53016
03:53
V
18 °C 10 mi - 320° 320° 12 - 19 kt METAR KTPA 120753Z 32012G19KT 10SM CLR 18/12 A3004 RMK AO2 SLP171 T01830117
02:53
V
19 °C 10 mi - 310° 310° 14 - 22 kt METAR KTPA 120653Z 31014G22KT 10SM FEW030 19/14 A3002 RMK AO2 SLP165 T01940144
01:53
V
20 °C 10 mi - 300° 300° 12 - 27 kt METAR KTPA 120553Z 30012G27KT 10SM FEW025 SCT038 20/15 A3001 RMK AO2 PK WND 28029/0501 SLP162 T02000150 10228 20200 51017
00:53
V
21 °C 10 mi - 300° 300° 16 - 26 kt METAR KTPA 120453Z 30016G26KT 10SM FEW025 SCT038 21/17 A3000 RMK AO2 PK WND 30028/0410 SLP158 T02110167 402610211

April 11, 2024

Time Code Weather Temp. Visibility Ceiling Wind METAR/SPECI
23:53
V
23 °C 10 mi 3,800 ft 290° 290° 15 - 26 kt METAR KTPA 120353Z 29015G26KT 10SM FEW025 SCT032 BKN038 23/17 A2998 RMK AO2 PK WND 28027/0336 SLP153 T02280167
22:53
V
22 °C 10 mi - 260° 260° 14 - 23 kt METAR KTPA 120253Z 26014G23KT 10SM SCT030 SCT042 22/18 A2996 RMK AO2 SLP145 T02220183 53025
22:22
V
22 °C 10 mi - 250° 250° 15 - 22 kt METAR KTPA 120222Z 25015G22KT 10SM SCT029 22/18 A2995 RMK AO2 T02220178
22:13
M
22 °C 10 mi 2,900 ft 270° 270° 15 - 21 kt METAR KTPA 120213Z 27015G21KT 10SM BKN029 22/18 A2994 RMK AO2 T02220178
21:53
V
22 °C 10 mi - 260° 260° 12 kt METAR KTPA 120153Z 26012KT 10SM SCT027 22/18 A2993 RMK AO2 SLP136 T02220183
20:53
V
23 °C 10 mi - 250° 250° 13 - 20 kt METAR KTPA 120053Z 25013G20KT 10SM SCT030 23/18 A2990 RMK AO2 SLP125 T02280183
19:53
V
23 °C 10 mi - 260° 260° 13 - 20 kt METAR KTPA 112353Z 26013G20KT 10SM FEW028 SCT250 23/18 A2989 RMK AO2 SLP119 60000 T02280183 10256 20228 53016
18:53
V
24 °C 10 mi - 260° 260° 13 - 22 kt METAR KTPA 112253Z 26013G22KT 10SM FEW035 SCT250 24/18 A2986 RMK AO2 SLP112 T02390183
17:53
V
25 °C 10 mi - 260° 260° 14 - 24 kt METAR KTPA 112153Z 26014G24KT 10SM FEW034 FEW250 25/18 A2986 RMK AO2 PK WND 28028/2103 SLP110 T02500183
16:53
V
25 °C 10 mi - 260° 260° 14 kt METAR KTPA 112053Z 26014KT 10SM FEW029 SCT036 25/19 A2984 RMK AO2 SLP103 60000 T02500189 53001
15:53
V
26 °C 10 mi - 260° 260° 14 - 20 kt METAR KTPA 111953Z 26014G20KT 10SM SCT029 SCT035 SCT200 26/20 A2983 RMK AO2 SLP101 T02560200
14:53
V
24 °C 9 mi 4,000 ft 260° 260° 12 - 22 kt METAR KTPA 111853Z 26012G22KT 9SM FEW020 BKN040 OVC048 24/21 A2984 RMK AO2 RAB03E17 SLP103 P0000 T02390211
13:53
V
23 °C 10 mi 3,500 ft 270° 270° 14 - 22 kt METAR KTPA 111753Z 27014G22KT 10SM OVC035 23/20 A2983 RMK AO2 PK WND 21035/1656 LTG DSNT NE-S RAE32 TSE32 SLP102 OCNL LTGIC DSNT NE-S CB DSNT NE-S P0038 60045 T02280200 10261 20228 53009
13:33
V
23 °C 8 mi 3,300 ft 270° 270° 13 - 20 kt METAR KTPA 111733Z 27013G20KT 8SM FEW028 BKN033 OVC055 23/21 A2983 RMK AO2 PK WND 21035/1656 LTG DSNT NE-S RAE32 TSE32 OCNL LTGIC DSNT NE-S CB DSNT NE-S P0038 T02330211
13:17
L
23 °C ½ mi 2,100 ft 260° 260° 16 - 30 kt METAR KTPA 111717Z 26016G30KT 1/2SM R19R/P6000FT -TSRA FG OVC021CB 23/22 A2982 RMK AO2 PK WND 21035/1656 LTG DSNT ALQDS OCNL LTGIC E-S AND DSNT NE-S TS E-S MOV E CB DSNT NE-S P0037 T02280217
13:00
L
24 °C ½ mi 2,100 ft 210° 210° 21 - 37 kt METAR KTPA 111700Z 21021G37KT 1/2SM R19R/1600VP6000FT -TSRA FG FEW008 BKN021 OVC029 24/23 A2982 RMK AO2 PK WND 21035/1656 LTG DSNT ALQDS PRESRR OCNL LTGIC OHD AND NE-SW TS OHD AND NE-SW P0023 T02390228
12:53
I
25 °C 1¾ mi 1,800 ft 180° 180° 25 - 37 kt METAR KTPA 111653Z 18025G37KT 1 3/4SM R19R/2000V4500FT -TSRA BR BKN018 BKN026CB OVC038 25/23 A2979 RMK AO2 PK WND 19038/1637 VIS 1/2V3 LTG DSNT ALQDS TSB00 SLP087 OCNL LTGIC OHD AND NE-SW TS OHD AND NE-SW MOV E P0006 T02500233
12:27
M
25 °C 4 mi 1,800 ft 180° 180° 22 - 33 kt METAR KTPA 111627Z 18022G33KT 4SM -TSRA BR BKN018 BKN026CB OVC038 25/23 A2980 RMK AO2 PK WND 18034/1615 LTG DSNT ALQDS TSB00 FRQ LTGIC ALQDS AND DSNT SW-NE TS ALQDS MOV E CB DSNT SW-NE P0002 T02500233
12:18
I
25 °C 2½ mi 1,800 ft 180° 180° 22 - 34 kt METAR KTPA 111618Z 18022G34KT 2 1/2SM -TSRA BR BKN018 BKN026CB OVC038 25/23 A2979 RMK AO2 PK WND 18034/1615 VIS 1 1/2V5 LTG DSNT SW-N TSB00 FRQ LTGIC ALQDS AND DSNT SW-NE TS ALQDS MOV E CB DSNT SW-NE P0001 T02500233
12:01
M
25 °C 7 mi 1,800 ft 190° 190° 22 - 37 kt METAR KTPA 111601Z 19022G37KT 7SM -TSRA BKN018 BKN026CB OVC038 25/23 A2980 RMK AO2 PK WND 18034/1555 LTG DSNT SW-N TSB00 OCNL LTGIC SW AND DSNT S-N TS SW MOV E CB DSNT S-N P0000 T02500233
11:53
M
25 °C 6 mi 1,800 ft 190° 190° 24 - 38 kt METAR KTPA 111553Z 19024G38KT 6SM R19R/5000VP6000FT -RA BR BKN018 BKN027 OVC038 25/23 A2981 RMK AO2 PK WND 19038/1546 LTG DSNT SW-NW RAB35 SLP092 OCNL LTGIC DSNT SW-N CB DSNT SW-N P0001 T02500233
10:53
M
26 °C 8 mi 2,000 ft 180° 180° 22 - 32 kt METAR KTPA 111453Z 18022G32KT 8SM BKN020 BKN026 OVC042 26/23 A2981 RMK AO2 PK WND 18038/1419 LTG DSNT W SLP092 OCNL LTGIC DSNT SW-N CB DSNT SW-N T02610228 57008
09:53
M
26 °C 8 mi 2,200 ft 180° 180° 20 - 32 kt METAR KTPA 111353Z 18020G32KT 8SM BKN022 OVC031 26/23 A2982 RMK AO2 PK WND 18038/1315 SLP097 T02560228
08:53
M
26 °C 8 mi 2,000 ft 180° 180° 17 - 27 kt METAR KTPA 111253Z 18017G27KT 8SM BKN020 OVC026 26/22 A2982 RMK AO2 PK WND 17030/1240 SLP096 T02560222
07:53
M
24 °C 10 mi 2,000 ft 160° 160° 8 kt METAR KTPA 111153Z 16008KT 10SM OVC020 24/21 A2983 RMK AO2 SLP100 T02390211 10239 20228 53008
06:53
M
23 °C 10 mi 2,100 ft 160° 160° 9 kt METAR KTPA 111053Z 16009KT 10SM OVC021 23/21 A2982 RMK AO2 SLP096 T02280206
05:53
M
23 °C 10 mi 2,500 ft 150° 150° 7 - 17 kt METAR KTPA 110953Z 15007G17KT 10SM BKN025 BKN085 23/20 A2982 RMK AO2 SLP096 T02280200
05:36
M
23 °C 10 mi 2,500 ft 150° 150° 6 kt METAR KTPA 110936Z 15006KT 10SM BKN025 BKN085 23/19 A2981 RMK AO2 T02280194
04:53
V
23 °C 10 mi - 150° 150° 8 kt METAR KTPA 110853Z 15008KT 10SM FEW050 SCT250 23/19 A2981 RMK AO2 SLP092 T02280189 56027
03:53
V
23 °C 10 mi - 150° 150° 7 kt METAR KTPA 110753Z 15007KT 10SM FEW048 23/19 A2983 RMK AO2 SLP099 T02280189
02:53
V
23 °C 10 mi 5,500 ft 160° 160° 8 - 18 kt METAR KTPA 110653Z 16008G18KT 10SM BKN055 23/18 A2985 RMK AO2 SLP106 T02330183
01:53
V
24 °C 10 mi 6,500 ft 160° 160° 8 kt METAR KTPA 110553Z 16008KT 10SM BKN065 24/18 A2989 RMK AO2 SLP120 T02390183 10250 20239 53006
Report a change